sensor_id;sensor_type;location;lat;lon;timestamp;P1;durP1;ratioP1;P2;durP2;ratioP2
14121;SDS011;7139;48.114;11.442;2023-01-29T00:00:01;32.03;;;19.90;;
14121;SDS011;7139;48.114;11.442;2023-01-29T00:02:34;27.23;;;18.90;;
14121;SDS011;7139;48.114;11.442;2023-01-29T00:05:02;25.63;;;17.83;;
14121;SDS011;7139;48.114;11.442;2023-01-29T00:07:30;25.53;;;17.20;;
14121;SDS011;7139;48.114;11.442;2023-01-29T00:09:56;24.67;;;17.00;;
14121;SDS011;7139;48.114;11.442;2023-01-29T00:12:23;23.33;;;16.50;;
14121;SDS011;7139;48.114;11.442;2023-01-29T00:14:50;23.53;;;16.07;;
14121;SDS011;7139;48.114;11.442;2023-01-29T00:17:17;20.73;;;14.80;;
14121;SDS011;7139;48.114;11.442;2023-01-29T00:19:44;21.93;;;14.87;;
14121;SDS011;7139;48.114;11.442;2023-01-29T00:22:12;20.87;;;15.50;;
14121;SDS011;7139;48.114;11.442;2023-01-29T00:24:39;20.17;;;14.67;;
14121;SDS011;7139;48.114;11.442;2023-01-29T00:27:08;23.57;;;15.33;;
14121;SDS011;7139;48.114;11.442;2023-01-29T00:29:35;21.80;;;14.47;;
14121;SDS011;7139;48.114;11.442;2023-01-29T00:32:01;25.40;;;15.93;;
14121;SDS011;7139;48.114;11.442;2023-01-29T00:34:28;25.07;;;15.80;;
14121;SDS011;7139;48.114;11.442;2023-01-29T00:36:55;21.77;;;16.40;;
14121;SDS011;7139;48.114;11.442;2023-01-29T00:39:30;21.30;;;15.20;;
14121;SDS011;7139;48.114;11.442;2023-01-29T00:42:02;21.17;;;14.20;;
14121;SDS011;7139;48.114;11.442;2023-01-29T00:44:47;20.77;;;14.20;;
14121;SDS011;7139;48.114;11.442;2023-01-29T00:47:23;18.20;;;13.47;;
14121;SDS011;7139;48.114;11.442;2023-01-29T00:49:57;19.63;;;14.23;;
14121;SDS011;7139;48.114;11.442;2023-01-29T00:52:24;17.47;;;13.43;;
14121;SDS011;7139;48.114;11.442;2023-01-29T00:54:53;20.70;;;14.03;;
14121;SDS011;7139;48.114;11.442;2023-01-29T00:57:21;16.70;;;12.70;;
14121;SDS011;7139;48.114;11.442;2023-01-29T00:59:48;17.83;;;14.00;;
14121;SDS011;7139;48.114;11.442;2023-01-29T01:02:15;18.57;;;14.57;;
14121;SDS011;7139;48.114;11.442;2023-01-29T01:04:59;20.23;;;15.50;;
14121;SDS011;7139;48.114;11.442;2023-01-29T01:07:27;20.27;;;14.10;;
14121;SDS011;7139;48.114;11.442;2023-01-29T01:09:55;18.23;;;14.00;;
14121;SDS011;7139;48.114;11.442;2023-01-29T01:12:39;17.33;;;13.47;;
14121;SDS011;7139;48.114;11.442;2023-01-29T01:15:06;18.10;;;13.40;;
14121;SDS011;7139;48.114;11.442;2023-01-29T01:17:34;17.10;;;13.47;;
14121;SDS011;7139;48.114;11.442;2023-01-29T01:20:01;19.90;;;14.27;;
14121;SDS011;7139;48.114;11.442;2023-01-29T01:22:28;18.40;;;13.73;;
14121;SDS011;7139;48.114;11.442;2023-01-29T01:24:56;17.13;;;13.17;;
14121;SDS011;7139;48.114;11.442;2023-01-29T01:27:23;16.33;;;13.40;;
14121;SDS011;7139;48.114;11.442;2023-01-29T01:29:50;18.27;;;13.90;;
14121;SDS011;7139;48.114;11.442;2023-01-29T01:32:16;19.00;;;13.50;;
14121;SDS011;7139;48.114;11.442;2023-01-29T01:34:43;20.27;;;14.47;;
14121;SDS011;7139;48.114;11.442;2023-01-29T01:37:10;17.53;;;14.07;;
14121;SDS011;7139;48.114;11.442;2023-01-29T01:39:37;18.00;;;14.10;;
14121;SDS011;7139;48.114;11.442;2023-01-29T01:42:08;17.67;;;13.53;;
14121;SDS011;7139;48.114;11.442;2023-01-29T01:44:50;17.30;;;13.20;;
14121;SDS011;7139;48.114;11.442;2023-01-29T01:47:19;18.37;;;14.13;;
14121;SDS011;7139;48.114;11.442;2023-01-29T01:49:49;17.73;;;13.30;;
14121;SDS011;7139;48.114;11.442;2023-01-29T01:52:17;15.03;;;12.90;;
14121;SDS011;7139;48.114;11.442;2023-01-29T01:54:45;17.63;;;13.50;;
14121;SDS011;7139;48.114;11.442;2023-01-29T01:57:14;17.27;;;13.57;;
14121;SDS011;7139;48.114;11.442;2023-01-29T01:59:49;14.70;;;12.20;;
14121;SDS011;7139;48.114;11.442;2023-01-29T02:02:21;14.70;;;12.10;;
14121;SDS011;7139;48.114;11.442;2023-01-29T02:05:05;15.47;;;12.33;;
14121;SDS011;7139;48.114;11.442;2023-01-29T02:07:50;13.40;;;11.43;;
14121;SDS011;7139;48.114;11.442;2023-01-29T02:10:35;14.83;;;11.70;;
14121;SDS011;7139;48.114;11.442;2023-01-29T02:13:07;14.23;;;11.87;;
14121;SDS011;7139;48.114;11.442;2023-01-29T02:15:35;13.57;;;10.83;;
14121;SDS011;7139;48.114;11.442;2023-01-29T02:18:05;13.13;;;11.00;;
14121;SDS011;7139;48.114;11.442;2023-01-29T02:20:33;12.33;;;10.83;;
14121;SDS011;7139;48.114;11.442;2023-01-29T02:23:05;13.63;;;10.77;;
14121;SDS011;7139;48.114;11.442;2023-01-29T02:25:58;14.00;;;11.97;;
14121;SDS011;7139;48.114;11.442;2023-01-29T02:28:46;16.17;;;12.20;;
14121;SDS011;7139;48.114;11.442;2023-01-29T02:31:21;12.73;;;10.53;;
14121;SDS011;7139;48.114;11.442;2023-01-29T02:33:55;14.03;;;11.33;;
14121;SDS011;7139;48.114;11.442;2023-01-29T02:36:31;15.00;;;11.37;;
14121;SDS011;7139;48.114;11.442;2023-01-29T02:39:05;13.13;;;10.73;;
14121;SDS011;7139;48.114;11.442;2023-01-29T02:41:41;13.80;;;10.93;;
14121;SDS011;7139;48.114;11.442;2023-01-29T02:44:15;12.47;;;11.10;;
14121;SDS011;7139;48.114;11.442;2023-01-29T02:46:48;13.13;;;10.87;;
14121;SDS011;7139;48.114;11.442;2023-01-29T02:49:21;12.17;;;10.23;;
14121;SDS011;7139;48.114;11.442;2023-01-29T02:51:53;13.37;;;10.73;;
14121;SDS011;7139;48.114;11.442;2023-01-29T02:54:29;15.17;;;9.90;;
14121;SDS011;7139;48.114;11.442;2023-01-29T02:57:03;13.17;;;10.70;;
14121;SDS011;7139;48.114;11.442;2023-01-29T02:59:41;11.77;;;9.90;;
14121;SDS011;7139;48.114;11.442;2023-01-29T03:02:12;11.97;;;10.47;;
14121;SDS011;7139;48.114;11.442;2023-01-29T03:04:45;12.80;;;10.63;;
14121;SDS011;7139;48.114;11.442;2023-01-29T03:07:15;11.07;;;9.67;;
14121;SDS011;7139;48.114;11.442;2023-01-29T03:10:05;12.30;;;10.20;;
14121;SDS011;7139;48.114;11.442;2023-01-29T03:12:37;12.90;;;9.83;;
14121;SDS011;7139;48.114;11.442;2023-01-29T03:15:07;13.13;;;10.87;;
14121;SDS011;7139;48.114;11.442;2023-01-29T03:17:41;13.60;;;11.23;;
14121;SDS011;7139;48.114;11.442;2023-01-29T03:20:12;13.63;;;10.30;;
14121;SDS011;7139;48.114;11.442;2023-01-29T03:22:43;12.57;;;10.23;;
14121;SDS011;7139;48.114;11.442;2023-01-29T03:25:14;13.00;;;10.17;;
14121;SDS011;7139;48.114;11.442;2023-01-29T03:28:01;12.20;;;9.90;;
14121;SDS011;7139;48.114;11.442;2023-01-29T03:30:49;13.47;;;11.10;;
14121;SDS011;7139;48.114;11.442;2023-01-29T03:33:38;13.60;;;10.67;;
14121;SDS011;7139;48.114;11.442;2023-01-29T03:36:10;12.60;;;10.53;;
14121;SDS011;7139;48.114;11.442;2023-01-29T03:38:41;12.57;;;10.50;;
14121;SDS011;7139;48.114;11.442;2023-01-29T03:41:09;11.37;;;9.40;;
14121;SDS011;7139;48.114;11.442;2023-01-29T03:43:44;12.10;;;9.40;;
14121;SDS011;7139;48.114;11.442;2023-01-29T03:46:20;14.77;;;10.00;;
14121;SDS011;7139;48.114;11.442;2023-01-29T03:48:54;10.80;;;9.47;;
14121;SDS011;7139;48.114;11.442;2023-01-29T03:51:27;11.10;;;9.57;;
14121;SDS011;7139;48.114;11.442;2023-01-29T03:54:00;11.23;;;9.77;;
14121;SDS011;7139;48.114;11.442;2023-01-29T03:56:35;10.57;;;9.47;;
14121;SDS011;7139;48.114;11.442;2023-01-29T03:59:14;10.33;;;8.40;;
14121;SDS011;7139;48.114;11.442;2023-01-29T04:01:50;10.93;;;8.90;;
14121;SDS011;7139;48.114;11.442;2023-01-29T04:04:23;10.10;;;8.97;;
14121;SDS011;7139;48.114;11.442;2023-01-29T04:06:53;10.70;;;8.83;;
14121;SDS011;7139;48.114;11.442;2023-01-29T04:09:23;10.67;;;9.43;;
14121;SDS011;7139;48.114;11.442;2023-01-29T04:11:56;10.50;;;9.30;;
14121;SDS011;7139;48.114;11.442;2023-01-29T04:14:29;10.10;;;8.80;;
14121;SDS011;7139;48.114;11.442;2023-01-29T04:16:59;12.70;;;9.90;;
14121;SDS011;7139;48.114;11.442;2023-01-29T04:19:31;12.93;;;9.43;;
14121;SDS011;7139;48.114;11.442;2023-01-29T04:22:01;10.93;;;9.07;;
14121;SDS011;7139;48.114;11.442;2023-01-29T04:24:31;11.87;;;9.37;;
14121;SDS011;7139;48.114;11.442;2023-01-29T04:27:03;12.03;;;10.30;;
14121;SDS011;7139;48.114;11.442;2023-01-29T04:29:39;11.43;;;9.63;;
14121;SDS011;7139;48.114;11.442;2023-01-29T04:32:20;12.20;;;10.03;;
14121;SDS011;7139;48.114;11.442;2023-01-29T04:34:57;12.33;;;9.90;;
14121;SDS011;7139;48.114;11.442;2023-01-29T04:37:29;11.27;;;9.47;;
14121;SDS011;7139;48.114;11.442;2023-01-29T04:40:03;11.70;;;9.80;;
14121;SDS011;7139;48.114;11.442;2023-01-29T04:42:41;12.17;;;9.80;;
14121;SDS011;7139;48.114;11.442;2023-01-29T04:45:15;12.10;;;9.90;;
14121;SDS011;7139;48.114;11.442;2023-01-29T04:47:49;11.43;;;9.50;;
14121;SDS011;7139;48.114;11.442;2023-01-29T04:50:24;11.40;;;9.60;;
14121;SDS011;7139;48.114;11.442;2023-01-29T04:52:54;11.83;;;9.70;;
14121;SDS011;7139;48.114;11.442;2023-01-29T04:55:28;11.73;;;9.40;;
14121;SDS011;7139;48.114;11.442;2023-01-29T04:58:02;12.40;;;9.97;;
14121;SDS011;7139;48.114;11.442;2023-01-29T05:00:32;12.03;;;10.27;;
14121;SDS011;7139;48.114;11.442;2023-01-29T05:03:05;11.77;;;9.50;;
14121;SDS011;7139;48.114;11.442;2023-01-29T05:05:33;12.93;;;10.23;;
14121;SDS011;7139;48.114;11.442;2023-01-29T05:08:01;12.77;;;10.20;;
14121;SDS011;7139;48.114;11.442;2023-01-29T05:10:29;11.50;;;10.10;;
14121;SDS011;7139;48.114;11.442;2023-01-29T05:12:57;12.83;;;10.30;;
14121;SDS011;7139;48.114;11.442;2023-01-29T05:15:28;11.80;;;9.87;;
14121;SDS011;7139;48.114;11.442;2023-01-29T05:17:58;12.87;;;10.37;;
14121;SDS011;7139;48.114;11.442;2023-01-29T05:20:28;12.40;;;10.50;;
14121;SDS011;7139;48.114;11.442;2023-01-29T05:22:57;14.70;;;10.97;;
14121;SDS011;7139;48.114;11.442;2023-01-29T05:25:25;12.60;;;9.77;;
14121;SDS011;7139;48.114;11.442;2023-01-29T05:27:54;12.33;;;10.23;;
14121;SDS011;7139;48.114;11.442;2023-01-29T05:30:29;13.37;;;10.80;;
14121;SDS011;7139;48.114;11.442;2023-01-29T05:32:56;10.90;;;9.63;;
14121;SDS011;7139;48.114;11.442;2023-01-29T05:35:23;12.60;;;10.03;;
14121;SDS011;7139;48.114;11.442;2023-01-29T05:37:51;11.47;;;10.27;;
14121;SDS011;7139;48.114;11.442;2023-01-29T05:40:18;12.50;;;10.20;;
14121;SDS011;7139;48.114;11.442;2023-01-29T05:42:45;10.67;;;9.00;;
14121;SDS011;7139;48.114;11.442;2023-01-29T05:45:12;11.43;;;10.10;;
14121;SDS011;7139;48.114;11.442;2023-01-29T05:47:38;9.70;;;8.70;;
14121;SDS011;7139;48.114;11.442;2023-01-29T05:50:06;11.90;;;9.20;;
14121;SDS011;7139;48.114;11.442;2023-01-29T05:52:34;10.10;;;8.37;;
14121;SDS011;7139;48.114;11.442;2023-01-29T05:55:02;9.27;;;8.37;;
14121;SDS011;7139;48.114;11.442;2023-01-29T05:57:29;10.67;;;9.00;;
14121;SDS011;7139;48.114;11.442;2023-01-29T05:59:56;10.87;;;9.10;;
14121;SDS011;7139;48.114;11.442;2023-01-29T06:02:23;10.27;;;8.97;;
14121;SDS011;7139;48.114;11.442;2023-01-29T06:04:50;10.20;;;8.63;;
14121;SDS011;7139;48.114;11.442;2023-01-29T06:07:17;10.27;;;9.00;;
14121;SDS011;7139;48.114;11.442;2023-01-29T06:09:43;10.80;;;9.10;;
14121;SDS011;7139;48.114;11.442;2023-01-29T06:12:12;10.87;;;9.33;;
14121;SDS011;7139;48.114;11.442;2023-01-29T06:14:38;11.53;;;9.87;;
14121;SDS011;7139;48.114;11.442;2023-01-29T06:17:05;11.27;;;9.40;;
14121;SDS011;7139;48.114;11.442;2023-01-29T06:19:32;11.43;;;9.53;;
14121;SDS011;7139;48.114;11.442;2023-01-29T06:21:58;11.30;;;9.60;;
14121;SDS011;7139;48.114;11.442;2023-01-29T06:24:25;10.60;;;9.50;;
14121;SDS011;7139;48.114;11.442;2023-01-29T06:26:52;10.27;;;9.13;;
14121;SDS011;7139;48.114;11.442;2023-01-29T06:29:20;11.83;;;9.43;;
14121;SDS011;7139;48.114;11.442;2023-01-29T06:31:47;12.17;;;10.17;;
14121;SDS011;7139;48.114;11.442;2023-01-29T06:34:14;11.17;;;9.97;;
14121;SDS011;7139;48.114;11.442;2023-01-29T06:36:40;12.00;;;9.40;;
14121;SDS011;7139;48.114;11.442;2023-01-29T06:39:07;11.23;;;9.10;;
14121;SDS011;7139;48.114;11.442;2023-01-29T06:41:34;10.47;;;9.37;;
14121;SDS011;7139;48.114;11.442;2023-01-29T06:44:01;10.17;;;8.87;;
14121;SDS011;7139;48.114;11.442;2023-01-29T06:46:29;10.40;;;8.43;;
14121;SDS011;7139;48.114;11.442;2023-01-29T06:48:56;10.50;;;9.30;;
14121;SDS011;7139;48.114;11.442;2023-01-29T06:51:24;11.83;;;10.00;;
14121;SDS011;7139;48.114;11.442;2023-01-29T06:53:51;10.90;;;9.10;;
14121;SDS011;7139;48.114;11.442;2023-01-29T06:56:20;9.70;;;8.70;;
14121;SDS011;7139;48.114;11.442;2023-01-29T06:58:47;11.77;;;9.53;;
14121;SDS011;7139;48.114;11.442;2023-01-29T07:01:14;10.73;;;9.53;;
14121;SDS011;7139;48.114;11.442;2023-01-29T07:03:42;11.00;;;9.80;;
14121;SDS011;7139;48.114;11.442;2023-01-29T07:06:09;12.53;;;10.27;;
14121;SDS011;7139;48.114;11.442;2023-01-29T07:08:36;11.77;;;9.57;;
14121;SDS011;7139;48.114;11.442;2023-01-29T07:11:03;11.57;;;9.50;;
14121;SDS011;7139;48.114;11.442;2023-01-29T07:13:31;11.50;;;9.83;;
14121;SDS011;7139;48.114;11.442;2023-01-29T07:15:57;10.43;;;9.07;;
14121;SDS011;7139;48.114;11.442;2023-01-29T07:18:25;11.60;;;9.77;;
14121;SDS011;7139;48.114;11.442;2023-01-29T07:20:54;10.70;;;9.57;;
14121;SDS011;7139;48.114;11.442;2023-01-29T07:23:21;11.47;;;10.07;;
14121;SDS011;7139;48.114;11.442;2023-01-29T07:25:48;12.60;;;10.50;;
14121;SDS011;7139;48.114;11.442;2023-01-29T07:28:16;10.67;;;9.37;;
14121;SDS011;7139;48.114;11.442;2023-01-29T07:30:42;11.17;;;9.50;;
14121;SDS011;7139;48.114;11.442;2023-01-29T07:33:09;11.60;;;10.33;;
14121;SDS011;7139;48.114;11.442;2023-01-29T07:35:37;12.37;;;9.63;;
14121;SDS011;7139;48.114;11.442;2023-01-29T07:38:06;11.33;;;9.70;;
14121;SDS011;7139;48.114;11.442;2023-01-29T07:40:34;9.70;;;8.70;;
14121;SDS011;7139;48.114;11.442;2023-01-29T07:43:02;11.37;;;9.53;;
14121;SDS011;7139;48.114;11.442;2023-01-29T07:45:30;11.10;;;9.90;;
14121;SDS011;7139;48.114;11.442;2023-01-29T07:47:58;10.57;;;9.40;;
14121;SDS011;7139;48.114;11.442;2023-01-29T07:50:25;10.17;;;9.17;;
14121;SDS011;7139;48.114;11.442;2023-01-29T07:52:53;11.63;;;9.37;;
14121;SDS011;7139;48.114;11.442;2023-01-29T07:55:21;9.93;;;8.70;;
14121;SDS011;7139;48.114;11.442;2023-01-29T07:57:53;10.00;;;9.00;;
14121;SDS011;7139;48.114;11.442;2023-01-29T08:00:20;9.87;;;8.57;;
14121;SDS011;7139;48.114;11.442;2023-01-29T08:02:47;10.37;;;8.43;;
14121;SDS011;7139;48.114;11.442;2023-01-29T08:05:14;9.50;;;8.50;;
14121;SDS011;7139;48.114;11.442;2023-01-29T08:07:41;10.57;;;8.83;;
14121;SDS011;7139;48.114;11.442;2023-01-29T08:10:08;9.20;;;7.70;;
14121;SDS011;7139;48.114;11.442;2023-01-29T08:12:37;9.60;;;8.20;;
14121;SDS011;7139;48.114;11.442;2023-01-29T08:15:04;11.37;;;8.90;;
14121;SDS011;7139;48.114;11.442;2023-01-29T08:17:31;9.47;;;8.00;;
14121;SDS011;7139;48.114;11.442;2023-01-29T08:19:57;9.20;;;7.90;;
14121;SDS011;7139;48.114;11.442;2023-01-29T08:22:24;9.93;;;7.73;;
14121;SDS011;7139;48.114;11.442;2023-01-29T08:24:51;8.90;;;7.40;;
14121;SDS011;7139;48.114;11.442;2023-01-29T08:27:18;9.23;;;7.03;;
14121;SDS011;7139;48.114;11.442;2023-01-29T08:29:46;9.97;;;7.77;;
14121;SDS011;7139;48.114;11.442;2023-01-29T08:32:13;9.00;;;7.57;;
14121;SDS011;7139;48.114;11.442;2023-01-29T08:34:40;8.33;;;6.63;;
14121;SDS011;7139;48.114;11.442;2023-01-29T08:37:07;7.87;;;6.70;;
14121;SDS011;7139;48.114;11.442;2023-01-29T08:39:33;7.80;;;6.60;;
14121;SDS011;7139;48.114;11.442;2023-01-29T08:42:00;10.07;;;8.30;;
14121;SDS011;7139;48.114;11.442;2023-01-29T08:44:27;8.70;;;7.00;;
14121;SDS011;7139;48.114;11.442;2023-01-29T08:46:55;11.07;;;7.93;;
14121;SDS011;7139;48.114;11.442;2023-01-29T08:49:22;49.67;;;28.83;;
14121;SDS011;7139;48.114;11.442;2023-01-29T08:51:49;13.67;;;9.60;;
14121;SDS011;7139;48.114;11.442;2023-01-29T08:54:16;8.97;;;7.07;;
14121;SDS011;7139;48.114;11.442;2023-01-29T08:56:43;8.80;;;6.87;;
14121;SDS011;7139;48.114;11.442;2023-01-29T08:59:10;7.50;;;6.50;;
14121;SDS011;7139;48.114;11.442;2023-01-29T09:01:37;7.30;;;5.77;;
14121;SDS011;7139;48.114;11.442;2023-01-29T09:04:05;7.00;;;6.10;;
14121;SDS011;7139;48.114;11.442;2023-01-29T09:06:32;6.97;;;5.70;;
14121;SDS011;7139;48.114;11.442;2023-01-29T09:08:58;7.20;;;5.80;;
14121;SDS011;7139;48.114;11.442;2023-01-29T09:11:25;7.00;;;5.67;;
14121;SDS011;7139;48.114;11.442;2023-01-29T09:13:52;7.73;;;5.63;;
14121;SDS011;7139;48.114;11.442;2023-01-29T09:16:19;7.80;;;5.73;;
14121;SDS011;7139;48.114;11.442;2023-01-29T09:18:45;6.13;;;5.47;;
14121;SDS011;7139;48.114;11.442;2023-01-29T09:21:13;6.67;;;5.97;;
14121;SDS011;7139;48.114;11.442;2023-01-29T09:23:41;6.80;;;6.10;;
14121;SDS011;7139;48.114;11.442;2023-01-29T09:26:07;7.67;;;6.20;;
14121;SDS011;7139;48.114;11.442;2023-01-29T09:28:34;8.03;;;6.67;;
14121;SDS011;7139;48.114;11.442;2023-01-29T09:31:01;8.13;;;6.43;;
14121;SDS011;7139;48.114;11.442;2023-01-29T09:33:28;8.43;;;6.70;;
14121;SDS011;7139;48.114;11.442;2023-01-29T09:35:56;8.13;;;6.33;;
14121;SDS011;7139;48.114;11.442;2023-01-29T09:38:24;6.97;;;6.20;;
14121;SDS011;7139;48.114;11.442;2023-01-29T09:40:53;7.60;;;6.50;;
14121;SDS011;7139;48.114;11.442;2023-01-29T09:43:32;8.47;;;6.97;;
14121;SDS011;7139;48.114;11.442;2023-01-29T09:46:11;7.87;;;6.70;;
14121;SDS011;7139;48.114;11.442;2023-01-29T09:48:43;8.80;;;7.17;;
14121;SDS011;7139;48.114;11.442;2023-01-29T09:51:13;8.50;;;7.13;;
14121;SDS011;7139;48.114;11.442;2023-01-29T09:53:50;8.57;;;7.67;;
14121;SDS011;7139;48.114;11.442;2023-01-29T09:56:23;10.67;;;8.87;;
14121;SDS011;7139;48.114;11.442;2023-01-29T09:58:53;8.97;;;7.77;;
14121;SDS011;7139;48.114;11.442;2023-01-29T10:01:25;10.37;;;7.77;;
14121;SDS011;7139;48.114;11.442;2023-01-29T10:04:03;9.77;;;8.60;;
14121;SDS011;7139;48.114;11.442;2023-01-29T10:06:48;9.60;;;8.60;;
14121;SDS011;7139;48.114;11.442;2023-01-29T10:09:32;10.83;;;9.27;;
14121;SDS011;7139;48.114;11.442;2023-01-29T10:12:23;11.87;;;10.67;;
14121;SDS011;7139;48.114;11.442;2023-01-29T10:15:01;11.33;;;10.13;;
14121;SDS011;7139;48.114;11.442;2023-01-29T10:17:43;12.50;;;10.43;;
14121;SDS011;7139;48.114;11.442;2023-01-29T10:20:23;11.73;;;10.23;;
14121;SDS011;7139;48.114;11.442;2023-01-29T10:23:01;11.47;;;10.23;;
14121;SDS011;7139;48.114;11.442;2023-01-29T10:25:39;11.83;;;10.40;;
14121;SDS011;7139;48.114;11.442;2023-01-29T10:28:14;11.70;;;10.50;;
14121;SDS011;7139;48.114;11.442;2023-01-29T10:30:44;11.43;;;10.23;;
14121;SDS011;7139;48.114;11.442;2023-01-29T10:33:16;11.53;;;10.33;;
14121;SDS011;7139;48.114;11.442;2023-01-29T10:35:46;11.10;;;9.67;;
14121;SDS011;7139;48.114;11.442;2023-01-29T10:44:14;14.20;;;10.53;;
14121;SDS011;7139;48.114;11.442;2023-01-29T10:46:55;12.27;;;10.97;;
14121;SDS011;7139;48.114;11.442;2023-01-29T10:49:48;13.07;;;11.67;;
14121;SDS011;7139;48.114;11.442;2023-01-29T10:52:29;13.03;;;11.20;;
14121;SDS011;7139;48.114;11.442;2023-01-29T10:55:13;12.67;;;11.33;;
14121;SDS011;7139;48.114;11.442;2023-01-29T10:57:54;11.33;;;10.07;;
14121;SDS011;7139;48.114;11.442;2023-01-29T11:00:29;11.50;;;10.30;;
14121;SDS011;7139;48.114;11.442;2023-01-29T11:03:06;11.57;;;10.33;;
14121;SDS011;7139;48.114;11.442;2023-01-29T11:05:40;11.07;;;9.87;;
14121;SDS011;7139;48.114;11.442;2023-01-29T11:08:12;12.93;;;10.63;;
14121;SDS011;7139;48.114;11.442;2023-01-29T11:10:43;11.30;;;10.13;;
14121;SDS011;7139;48.114;11.442;2023-01-29T11:13:15;11.23;;;9.80;;
14121;SDS011;7139;48.114;11.442;2023-01-29T11:15:43;11.27;;;9.80;;
14121;SDS011;7139;48.114;11.442;2023-01-29T11:18:10;10.50;;;9.43;;
14121;SDS011;7139;48.114;11.442;2023-01-29T11:20:40;11.57;;;10.33;;
14121;SDS011;7139;48.114;11.442;2023-01-29T11:23:19;11.53;;;9.30;;
14121;SDS011;7139;48.114;11.442;2023-01-29T11:25:51;10.70;;;9.60;;
14121;SDS011;7139;48.114;11.442;2023-01-29T11:31:13;11.17;;;9.10;;
14121;SDS011;7139;48.114;11.442;2023-01-29T11:33:42;9.90;;;8.90;;
14121;SDS011;7139;48.114;11.442;2023-01-29T11:36:19;11.03;;;9.90;;
14121;SDS011;7139;48.114;11.442;2023-01-29T11:39:03;11.07;;;9.80;;
14121;SDS011;7139;48.114;11.442;2023-01-29T11:41:41;10.87;;;9.67;;
14121;SDS011;7139;48.114;11.442;2023-01-29T11:44:17;9.67;;;8.67;;
14121;SDS011;7139;48.114;11.442;2023-01-29T11:46:45;10.87;;;9.43;;
14121;SDS011;7139;48.114;11.442;2023-01-29T11:49:21;10.90;;;9.80;;
14121;SDS011;7139;48.114;11.442;2023-01-29T11:51:54;12.67;;;10.83;;
14121;SDS011;7139;48.114;11.442;2023-01-29T11:54:22;10.80;;;9.70;;
14121;SDS011;7139;48.114;11.442;2023-01-29T11:56:53;9.63;;;8.73;;
14121;SDS011;7139;48.114;11.442;2023-01-29T11:59:27;12.33;;;10.87;;
14121;SDS011;7139;48.114;11.442;2023-01-29T12:02:04;10.47;;;9.47;;
14121;SDS011;7139;48.114;11.442;2023-01-29T12:04:38;10.87;;;9.77;;
14121;SDS011;7139;48.114;11.442;2023-01-29T12:07:09;10.63;;;9.43;;
14121;SDS011;7139;48.114;11.442;2023-01-29T12:09:38;10.80;;;9.70;;
14121;SDS011;7139;48.114;11.442;2023-01-29T12:12:16;11.53;;;10.00;;
14121;SDS011;7139;48.114;11.442;2023-01-29T12:14:56;10.73;;;9.63;;
14121;SDS011;7139;48.114;11.442;2023-01-29T12:17:28;9.63;;;8.63;;
14121;SDS011;7139;48.114;11.442;2023-01-29T12:19:58;11.07;;;9.93;;
14121;SDS011;7139;48.114;11.442;2023-01-29T12:22:32;11.13;;;9.93;;
14121;SDS011;7139;48.114;11.442;2023-01-29T12:25:06;10.03;;;9.07;;
14121;SDS011;7139;48.114;11.442;2023-01-29T12:27:42;10.97;;;9.77;;
14121;SDS011;7139;48.114;11.442;2023-01-29T12:30:16;10.27;;;9.20;;
14121;SDS011;7139;48.114;11.442;2023-01-29T12:32:48;10.30;;;9.23;;
14121;SDS011;7139;48.114;11.442;2023-01-29T12:35:22;10.70;;;9.60;;
14121;SDS011;7139;48.114;11.442;2023-01-29T12:37:53;11.00;;;9.63;;
14121;SDS011;7139;48.114;11.442;2023-01-29T12:40:26;11.30;;;9.67;;
14121;SDS011;7139;48.114;11.442;2023-01-29T12:42:56;11.07;;;9.63;;
14121;SDS011;7139;48.114;11.442;2023-01-29T12:45:30;10.63;;;9.53;;
14121;SDS011;7139;48.114;11.442;2023-01-29T12:48:03;10.40;;;9.30;;
14121;SDS011;7139;48.114;11.442;2023-01-29T12:50:33;10.07;;;8.83;;
14121;SDS011;7139;48.114;11.442;2023-01-29T12:53:02;10.07;;;8.90;;
14121;SDS011;7139;48.114;11.442;2023-01-29T12:55:33;10.53;;;8.90;;
14121;SDS011;7139;48.114;11.442;2023-01-29T12:58:08;10.03;;;8.93;;
14121;SDS011;7139;48.114;11.442;2023-01-29T13:00:41;10.07;;;9.00;;
14121;SDS011;7139;48.114;11.442;2023-01-29T13:03:13;11.60;;;9.00;;
14121;SDS011;7139;48.114;11.442;2023-01-29T13:05:46;9.80;;;8.80;;
14121;SDS011;7139;48.114;11.442;2023-01-29T13:08:17;10.07;;;8.87;;
14121;SDS011;7139;48.114;11.442;2023-01-29T13:10:50;10.13;;;8.87;;
14121;SDS011;7139;48.114;11.442;2023-01-29T13:13:21;9.77;;;8.77;;
14121;SDS011;7139;48.114;11.442;2023-01-29T13:15:56;11.07;;;9.40;;
14121;SDS011;7139;48.114;11.442;2023-01-29T13:18:32;10.93;;;9.47;;
14121;SDS011;7139;48.114;11.442;2023-01-29T13:21:09;9.90;;;8.70;;
14121;SDS011;7139;48.114;11.442;2023-01-29T13:23:38;9.30;;;7.93;;
14121;SDS011;7139;48.114;11.442;2023-01-29T13:26:08;9.03;;;7.77;;
14121;SDS011;7139;48.114;11.442;2023-01-29T13:28:37;8.87;;;7.97;;
14121;SDS011;7139;48.114;11.442;2023-01-29T13:31:12;8.70;;;7.80;;
14121;SDS011;7139;48.114;11.442;2023-01-29T13:33:51;8.43;;;7.53;;
14121;SDS011;7139;48.114;11.442;2023-01-29T13:36:23;8.03;;;6.90;;
14121;SDS011;7139;48.114;11.442;2023-01-29T13:38:54;7.83;;;6.97;;
14121;SDS011;7139;48.114;11.442;2023-01-29T13:41:35;8.93;;;7.93;;
14121;SDS011;7139;48.114;11.442;2023-01-29T13:44:04;8.37;;;7.47;;
14121;SDS011;7139;48.114;11.442;2023-01-29T13:46:37;7.90;;;7.10;;
14121;SDS011;7139;48.114;11.442;2023-01-29T13:49:12;9.90;;;7.90;;
14121;SDS011;7139;48.114;11.442;2023-01-29T13:51:53;8.70;;;7.77;;
14121;SDS011;7139;48.114;11.442;2023-01-29T13:54:21;8.27;;;6.77;;
14121;SDS011;7139;48.114;11.442;2023-01-29T13:56:55;7.53;;;6.73;;
14121;SDS011;7139;48.114;11.442;2023-01-29T14:02:20;7.37;;;6.60;;
14121;SDS011;7139;48.114;11.442;2023-01-29T14:04:49;8.27;;;6.20;;
14121;SDS011;7139;48.114;11.442;2023-01-29T14:10:14;7.03;;;6.33;;
14121;SDS011;7139;48.114;11.442;2023-01-29T14:12:52;7.20;;;6.50;;
14121;SDS011;7139;48.114;11.442;2023-01-29T14:15:26;8.37;;;6.87;;
14121;SDS011;7139;48.114;11.442;2023-01-29T14:18:03;7.83;;;6.57;;
14121;SDS011;7139;48.114;11.442;2023-01-29T14:20:40;7.93;;;6.77;;
14121;SDS011;7139;48.114;11.442;2023-01-29T14:23:20;7.57;;;6.27;;
14121;SDS011;7139;48.114;11.442;2023-01-29T14:25:52;6.90;;;5.80;;
14121;SDS011;7139;48.114;11.442;2023-01-29T14:28:20;8.00;;;6.30;;
14121;SDS011;7139;48.114;11.442;2023-01-29T14:30:50;7.50;;;6.53;;
14121;SDS011;7139;48.114;11.442;2023-01-29T14:33:24;8.27;;;7.17;;
14121;SDS011;7139;48.114;11.442;2023-01-29T14:35:55;7.97;;;7.00;;
14121;SDS011;7139;48.114;11.442;2023-01-29T14:38:24;8.07;;;7.27;;
14121;SDS011;7139;48.114;11.442;2023-01-29T14:41:01;9.17;;;6.47;;
14121;SDS011;7139;48.114;11.442;2023-01-29T14:43:30;7.73;;;6.87;;
14121;SDS011;7139;48.114;11.442;2023-01-29T14:46:30;8.90;;;7.53;;
14121;SDS011;7139;48.114;11.442;2023-01-29T14:49:09;9.17;;;7.03;;
14121;SDS011;7139;48.114;11.442;2023-01-29T14:51:36;8.17;;;6.87;;
14121;SDS011;7139;48.114;11.442;2023-01-29T14:54:13;7.87;;;6.80;;
14121;SDS011;7139;48.114;11.442;2023-01-29T14:56:53;8.40;;;7.30;;
14121;SDS011;7139;48.114;11.442;2023-01-29T14:59:25;8.03;;;7.20;;
14121;SDS011;7139;48.114;11.442;2023-01-29T15:01:59;9.20;;;7.50;;
14121;SDS011;7139;48.114;11.442;2023-01-29T15:04:30;9.00;;;7.40;;
14121;SDS011;7139;48.114;11.442;2023-01-29T15:07:05;9.20;;;7.60;;
14121;SDS011;7139;48.114;11.442;2023-01-29T15:09:41;7.87;;;6.83;;
14121;SDS011;7139;48.114;11.442;2023-01-29T15:12:14;9.80;;;7.30;;